Time;durP1;ratioP1;P1;durP2;ratioP2;P2;SDS_P1;SDS_P2;PMS_P1;PMS_P2;Temp;Humidity;BMP_temperature;BMP_pressure;BME280_temperature;BME280_humidity;BME280_pressure;Samples;Min_cycle;Max_cycle;Signal;HPM_P1;HPM_P2
2022/11/25 00:01:24;;;;;;;27.07;16.60;;;5.30;99.90;;;;;;5055244;28;20295;-75
2022/11/25 00:03:51;;;;;;;24.77;15.70;;;5.30;99.90;;;;;;5043336;28;20303;-76
2022/11/25 00:06:19;;;;;;;25.40;15.93;;;5.30;99.90;;;;;;5059408;28;20201;-75
2022/11/25 00:08:48;;;;;;;28.33;16.53;;;5.30;99.90;;;;;;5050653;28;20182;-75
2022/11/25 00:11:15;;;;;;;24.33;15.67;;;5.30;99.90;;;;;;5047026;28;20681;-75
2022/11/25 00:13:41;;;;;;;24.50;16.07;;;5.30;99.90;;;;;;5055299;28;20211;-76
2022/11/25 00:16:10;;;;;;;25.37;15.13;;;5.30;99.90;;;;;;5043602;28;20590;-76
2022/11/25 00:18:36;;;;;;;24.20;15.93;;;5.30;99.90;;;;;;5047307;28;20633;-74
2022/11/25 00:21:07;;;;;;;30.50;16.37;;;5.30;99.90;;;;;;5053088;28;20687;-75
2022/11/25 00:23:33;;;;;;;25.73;16.27;;;5.30;99.90;;;;;;5053636;28;20673;-75
2022/11/25 00:26:15;;;;;;;25.47;16.17;;;5.30;99.90;;;;;;5047883;28;20230;-75
2022/11/25 00:28:43;;;;;;;25.50;16.20;;;5.30;99.90;;;;;;5047882;28;20214;-74
2022/11/25 00:31:18;;;;;;;26.70;17.30;;;5.30;99.90;;;;;;5049709;28;20208;-75
2022/11/25 00:33:45;;;;;;;24.73;17.10;;;5.30;99.90;;;;;;5050248;28;20210;-73
2022/11/25 00:36:31;;;;;;;26.57;17.53;;;5.30;99.90;;;;;;5044002;28;20241;-75
2022/11/25 00:39:02;;;;;;;30.30;17.37;;;5.30;99.90;;;;;;5048360;28;20216;-74
2022/11/25 00:47:00;;;;;;;27.00;17.57;;;5.30;99.90;;;;;;5053449;28;20724;-75
2022/11/25 00:49:26;;;;;;;35.27;19.13;;;5.30;99.90;;;;;;5049816;28;20218;-73
2022/11/25 00:51:52;;;;;;;30.13;18.90;;;5.30;99.90;;;;;;5046894;28;20241;-75
2022/11/25 00:54:17;;;;;;;30.83;18.20;;;5.30;99.90;;;;;;5043374;28;20188;-74
2022/11/25 00:56:43;;;;;;;29.87;17.47;;;5.30;99.90;;;;;;5046699;28;20175;-75
2022/11/25 00:59:10;;;;;;;28.87;17.13;;;5.30;99.90;;;;;;5050955;28;20224;-74
2022/11/25 01:01:35;;;;;;;26.20;17.47;;;5.30;99.90;;;;;;5047992;28;20219;-74
2022/11/25 01:04:02;;;;;;;28.73;18.60;;;5.30;99.90;;;;;;5044673;28;20269;-74
2022/11/25 01:06:27;;;;;;;28.60;18.20;;;5.30;99.90;;;;;;5048258;28;20190;-75
2022/11/25 01:08:53;;;;;;;30.80;19.37;;;5.30;99.90;;;;;;5049386;28;20205;-73
2022/11/25 01:11:21;;;;;;;27.50;18.53;;;5.30;99.90;;;;;;5045387;28;20264;-74
2022/11/25 01:13:47;;;;;;;31.73;19.60;;;5.20;99.90;;;;;;5050658;28;20283;-73
2022/11/25 01:16:18;;;;;;;30.13;18.50;;;5.30;99.90;;;;;;5050276;28;20683;-74
2022/11/25 01:18:44;;;;;;;33.73;20.83;;;5.20;99.90;;;;;;5038580;28;20214;-74
2022/11/25 01:21:22;;;;;;;28.23;19.13;;;5.20;99.90;;;;;;5054526;28;20247;-73
2022/11/25 01:23:48;;;;;;;29.93;18.97;;;5.30;99.90;;;;;;5041730;28;20188;-75
2022/11/25 01:26:17;;;;;;;31.80;19.30;;;5.30;99.90;;;;;;5052190;28;20293;-72
2022/11/25 01:28:43;;;;;;;35.17;19.50;;;5.20;99.90;;;;;;5048439;28;20214;-77
2022/11/25 01:31:17;;;;;;;35.00;20.00;;;5.30;99.90;;;;;;5049378;28;20211;-75
2022/11/25 01:33:44;;;;;;;33.80;20.03;;;5.20;99.90;;;;;;5051907;28;20261;-73
2022/11/25 01:36:13;;;;;;;30.80;19.87;;;5.30;99.90;;;;;;5050184;28;20211;-73
2022/11/25 01:38:39;;;;;;;32.37;21.40;;;5.30;99.90;;;;;;5039966;28;20232;-74
2022/11/25 01:41:07;;;;;;;33.67;20.37;;;5.30;99.90;;;;;;5049672;28;20212;-75
2022/11/25 01:43:34;;;;;;;36.90;21.87;;;5.30;99.90;;;;;;5047920;28;20238;-74
2022/11/25 01:46:24;;;;;;;35.47;21.13;;;5.30;99.90;;;;;;5039352;28;20675;-73
2022/11/25 01:49:00;;;;;;;36.13;20.20;;;5.30;99.90;;;;;;5048815;28;20235;-72
2022/11/25 01:51:39;;;;;;;37.43;20.87;;;5.30;99.90;;;;;;5044426;28;20203;-74
2022/11/25 01:54:07;;;;;;;34.67;20.60;;;5.30;99.90;;;;;;5055559;28;20191;-73
2022/11/25 01:56:38;;;;;;;34.37;20.70;;;5.40;99.90;;;;;;5052287;28;20225;-75
2022/11/25 01:59:04;;;;;;;39.30;21.47;;;5.30;99.90;;;;;;5045379;28;20290;-75
2022/11/25 02:01:30;;;;;;;35.73;22.83;;;5.30;99.90;;;;;;5050963;28;20801;-76
2022/11/25 02:03:57;;;;;;;44.77;23.23;;;5.30;99.90;;;;;;5044755;28;20216;-74
2022/11/25 02:06:27;;;;;;;43.50;23.73;;;5.30;99.90;;;;;;5046683;28;20175;-76
2022/11/25 02:08:57;;;;;;;38.20;22.10;;;5.30;99.90;;;;;;5054372;28;20286;-74
2022/11/25 02:11:25;;;;;;;38.70;23.60;;;5.30;99.90;;;;;;5049785;28;20293;-76
2022/11/25 02:13:51;;;;;;;42.53;23.47;;;5.30;99.90;;;;;;5039472;28;20789;-75
2022/11/25 02:16:17;;;;;;;46.00;24.73;;;5.30;99.90;;;;;;5046631;28;20919;-74
2022/11/25 02:18:43;;;;;;;46.03;23.93;;;5.30;99.90;;;;;;5053695;28;20207;-75
2022/11/25 02:21:08;;;;;;;47.53;26.23;;;5.20;99.90;;;;;;5047921;28;20309;-75
2022/11/25 02:24:00;;;;;;;45.33;23.90;;;5.20;99.90;;;;;;5049255;28;20183;-73
2022/11/25 02:26:25;;;;;;;50.47;25.97;;;5.10;99.90;;;;;;5049544;28;20746;-76
2022/11/25 02:28:52;;;;;;;50.70;26.03;;;5.10;99.90;;;;;;5056179;28;20207;-75
2022/11/25 02:31:22;;;;;;;47.00;25.80;;;5.10;99.90;;;;;;5052154;28;20233;-76
2022/11/25 02:33:47;;;;;;;48.23;26.57;;;5.10;99.90;;;;;;5049002;28;20212;-76
2022/11/25 02:36:19;;;;;;;53.83;26.47;;;5.00;99.90;;;;;;5055974;28;20185;-75
2022/11/25 02:38:56;;;;;;;56.63;26.33;;;5.00;99.90;;;;;;5046914;28;20261;-72
2022/11/25 02:41:36;;;;;;;54.77;27.93;;;5.10;99.90;;;;;;5050142;28;20231;-73
2022/11/25 02:44:03;;;;;;;53.40;26.90;;;5.10;99.90;;;;;;5049689;28;20200;-74
2022/11/25 02:46:29;;;;;;;52.93;26.67;;;5.10;99.90;;;;;;5048158;28;20580;-75
2022/11/25 02:48:56;;;;;;;53.33;27.17;;;5.10;99.90;;;;;;5055148;28;20203;-75
2022/11/25 02:51:25;;;;;;;48.33;27.00;;;5.00;99.90;;;;;;5054795;28;20628;-76
2022/11/25 02:53:51;;;;;;;50.23;26.67;;;5.10;99.90;;;;;;5053590;28;20237;-75
2022/11/25 02:56:18;;;;;;;48.57;25.10;;;5.10;99.90;;;;;;5056595;28;20214;-74
2022/11/25 02:58:44;;;;;;;53.00;25.50;;;5.10;99.90;;;;;;5046707;28;20257;-75
2022/11/25 03:01:10;;;;;;;50.73;25.03;;;5.10;99.90;;;;;;5051499;28;20227;-75
2022/11/25 03:03:36;;;;;;;51.30;24.33;;;5.00;99.90;;;;;;5048717;28;20211;-75
2022/11/25 03:06:02;;;;;;;45.83;23.40;;;5.00;99.90;;;;;;5042438;28;20211;-73
2022/11/25 03:08:28;;;;;;;47.67;24.83;;;5.10;99.90;;;;;;5054458;28;20759;-75
2022/11/25 03:10:54;;;;;;;45.57;25.63;;;5.10;99.90;;;;;;5056035;28;20208;-75
2022/11/25 03:13:20;;;;;;;44.30;24.10;;;5.20;99.90;;;;;;5054037;28;20234;-72
2022/11/25 03:15:46;;;;;;;49.47;24.90;;;5.20;99.90;;;;;;5053625;28;20234;-74
2022/11/25 03:18:11;;;;;;;46.97;25.47;;;5.20;99.90;;;;;;5048140;28;20230;-74
2022/11/25 03:20:37;;;;;;;47.47;24.23;;;5.20;99.90;;;;;;5044138;28;20249;-75
2022/11/25 03:23:04;;;;;;;46.10;24.37;;;5.30;99.90;;;;;;5048451;28;20702;-75
2022/11/25 03:25:29;;;;;;;43.63;23.57;;;5.30;99.90;;;;;;5045940;28;20569;-75
2022/11/25 03:27:55;;;;;;;49.33;22.23;;;5.30;99.90;;;;;;5044753;28;20229;-75
2022/11/25 03:30:23;;;;;;;38.00;21.20;;;5.30;99.90;;;;;;5052381;28;20553;-76
2022/11/25 03:32:49;;;;;;;39.13;22.53;;;5.30;99.90;;;;;;5047583;28;20307;-75
2022/11/25 03:35:16;;;;;;;37.57;21.63;;;5.30;99.90;;;;;;5046168;28;20290;-75
2022/11/25 03:37:42;;;;;;;40.17;20.67;;;5.30;99.90;;;;;;5045650;28;20219;-75
2022/11/25 03:40:10;;;;;;;37.10;20.13;;;5.30;99.90;;;;;;5041186;28;20215;-75
2022/11/25 03:42:36;;;;;;;39.87;21.40;;;5.30;99.90;;;;;;5049513;28;20954;-75
2022/11/25 03:45:02;;;;;;;40.23;20.73;;;5.20;99.90;;;;;;5044924;28;20303;-72
2022/11/25 03:47:28;;;;;;;35.13;20.27;;;5.20;99.90;;;;;;5044027;28;20701;-74
2022/11/25 03:49:54;;;;;;;37.40;21.10;;;5.20;99.90;;;;;;5046981;28;20219;-75
2022/11/25 03:52:19;;;;;;;40.80;21.90;;;5.20;99.90;;;;;;5049373;28;20219;-75
2022/11/25 03:54:45;;;;;;;36.13;20.43;;;5.30;99.90;;;;;;5050017;28;20230;-75
2022/11/25 03:57:10;;;;;;;36.70;19.17;;;5.30;99.90;;;;;;5047366;28;20188;-75
2022/11/25 03:59:36;;;;;;;34.73;19.43;;;5.30;99.90;;;;;;5049582;28;20176;-75
2022/11/25 04:02:02;;;;;;;35.37;19.57;;;5.30;99.90;;;;;;5043316;28;20610;-75
2022/11/25 04:04:28;;;;;;;35.80;20.87;;;5.30;99.90;;;;;;5049465;28;20310;-74
2022/11/25 04:06:53;;;;;;;35.90;20.07;;;5.30;99.90;;;;;;5046773;28;20254;-73
2022/11/25 04:09:19;;;;;;;37.73;19.23;;;5.30;99.90;;;;;;5048846;28;20206;-72
2022/11/25 04:14:29;;;;;;;36.77;18.83;;;5.40;99.90;;;;;;5043814;28;20209;-75
2022/11/25 04:16:55;;;;;;;37.77;20.03;;;5.50;99.90;;;;;;5046624;28;20212;-75
2022/11/25 04:19:21;;;;;;;37.47;19.73;;;5.50;99.90;;;;;;5044846;28;20732;-75
2022/11/25 04:21:46;;;;;;;36.10;19.67;;;5.50;99.90;;;;;;5044683;28;20253;-76
2022/11/25 04:24:12;;;;;;;38.73;20.47;;;5.50;99.90;;;;;;5044726;28;20660;-77
2022/11/25 04:26:38;;;;;;;33.80;18.57;;;5.50;99.90;;;;;;5043529;28;20230;-75
2022/11/25 04:29:03;;;;;;;31.63;18.53;;;5.40;99.90;;;;;;5042280;28;20598;-75
2022/11/25 04:31:29;;;;;;;31.00;17.73;;;5.40;99.90;;;;;;5050768;28;20222;-76
2022/11/25 04:33:55;;;;;;;28.33;17.33;;;5.50;99.90;;;;;;5040321;28;20216;-75
2022/11/25 04:36:21;;;;;;;38.60;19.33;;;5.50;99.90;;;;;;5049186;28;20700;-75
2022/11/25 04:38:46;;;;;;;30.20;18.63;;;5.50;99.90;;;;;;5043268;28;20256;-75
2022/11/25 04:41:12;;;;;;;34.47;19.07;;;5.50;99.90;;;;;;5040396;28;20235;-76
2022/11/25 04:43:37;;;;;;;29.43;17.43;;;5.60;99.90;;;;;;5048864;28;20210;-76
2022/11/25 04:46:04;;;;;;;33.43;18.80;;;5.60;99.90;;;;;;5042733;28;20218;-76
2022/11/25 04:48:29;;;;;;;41.37;18.90;;;5.60;99.90;;;;;;5042298;28;20293;-74
2022/11/25 04:50:55;;;;;;;31.73;16.90;;;5.50;99.90;;;;;;5048518;28;20254;-75
2022/11/25 04:53:21;;;;;;;34.27;18.23;;;5.60;99.90;;;;;;5044053;28;20603;-73
2022/11/25 04:55:47;;;;;;;35.10;19.43;;;5.60;99.90;;;;;;5045523;28;20211;-76
2022/11/25 04:58:12;;;;;;;33.87;19.00;;;5.60;99.90;;;;;;5047615;28;20219;-75
2022/11/25 05:00:38;;;;;;;36.97;20.27;;;5.60;99.90;;;;;;5041664;28;20424;-75
2022/11/25 05:03:04;;;;;;;31.73;18.77;;;5.60;99.90;;;;;;5046623;28;20674;-75
2022/11/25 05:05:29;;;;;;;39.30;21.07;;;5.50;99.90;;;;;;5045824;28;20242;-75
2022/11/25 05:07:55;;;;;;;37.37;21.47;;;5.60;99.90;;;;;;5037964;28;20212;-76
2022/11/25 05:10:21;;;;;;;34.30;19.67;;;5.50;99.90;;;;;;5047531;28;20204;-76
2022/11/25 05:12:47;;;;;;;40.53;20.70;;;5.50;99.90;;;;;;5043112;28;20224;-75
2022/11/25 05:15:12;;;;;;;37.80;20.37;;;5.60;99.90;;;;;;5041517;28;20266;-75
2022/11/25 05:17:38;;;;;;;36.63;20.00;;;5.50;99.90;;;;;;5048026;28;20168;-74
2022/11/25 05:20:05;;;;;;;42.17;19.73;;;5.50;99.90;;;;;;5040187;28;20604;-76
2022/11/25 05:22:31;;;;;;;36.53;19.77;;;5.60;99.90;;;;;;5058600;23;20548;-72
2022/11/25 05:24:58;;;;;;;34.43;19.80;;;5.50;99.90;;;;;;5021939;28;20209;-71
2022/11/25 05:27:25;;;;;;;32.83;19.07;;;5.50;99.90;;;;;;5024841;28;20180;-71
2022/11/25 05:29:51;;;;;;;35.63;19.43;;;5.60;99.90;;;;;;5021961;28;20198;-71
2022/11/25 05:32:16;;;;;;;41.50;20.87;;;5.60;99.90;;;;;;5024170;28;20208;-71
2022/11/25 05:34:43;;;;;;;38.20;19.97;;;5.60;99.90;;;;;;5003801;28;20747;-72
2022/11/25 05:37:11;;;;;;;34.03;19.50;;;5.60;99.90;;;;;;5016704;28;20278;-72
2022/11/25 05:39:36;;;;;;;41.53;20.13;;;5.60;99.90;;;;;;5010835;28;20699;-71
2022/11/25 05:42:02;;;;;;;39.20;20.10;;;5.60;99.90;;;;;;5005480;28;20208;-71
2022/11/25 05:44:28;;;;;;;36.53;20.13;;;5.60;99.90;;;;;;5015292;28;20239;-71
2022/11/25 05:46:53;;;;;;;36.83;20.53;;;5.50;99.90;;;;;;5005637;28;20292;-70
2022/11/25 05:49:19;;;;;;;33.33;19.43;;;5.50;99.90;;;;;;5012146;28;20204;-71
2022/11/25 05:51:46;;;;;;;39.97;20.07;;;5.50;99.90;;;;;;5011234;28;20331;-71
2022/11/25 05:54:12;;;;;;;39.07;20.60;;;5.60;99.90;;;;;;5006528;28;20206;-72
2022/11/25 05:56:38;;;;;;;33.87;19.77;;;5.50;99.90;;;;;;5011790;28;20213;-71
2022/11/25 05:59:04;;;;;;;33.00;19.60;;;5.50;99.90;;;;;;5011968;28;20247;-71
2022/11/25 06:01:30;;;;;;;35.40;21.47;;;5.50;99.90;;;;;;5007633;28;20217;-71
2022/11/25 06:03:59;;;;;;;35.27;19.30;;;5.50;99.90;;;;;;5015787;28;20267;-71
2022/11/25 06:06:25;;;;;;;37.33;19.23;;;5.50;99.90;;;;;;5014248;28;20188;-71
2022/11/25 06:08:51;;;;;;;36.73;20.13;;;5.50;99.90;;;;;;5003410;28;20574;-71
2022/11/25 06:11:17;;;;;;;38.53;21.53;;;5.50;99.90;;;;;;5019856;28;20325;-71
2022/11/25 06:13:43;;;;;;;39.00;21.20;;;5.50;99.90;;;;;;5010043;28;20734;-71
2022/11/25 06:16:16;;;;;;;39.53;21.87;;;5.50;99.90;;;;;;5007749;28;20217;-71
2022/11/25 06:18:41;;;;;;;37.63;21.00;;;5.40;99.90;;;;;;5012608;28;20778;-71
2022/11/25 06:21:09;;;;;;;40.00;21.73;;;5.40;99.90;;;;;;5009242;28;20296;-72
2022/11/25 06:23:36;;;;;;;37.90;22.03;;;5.30;99.90;;;;;;5015982;28;20228;-71
2022/11/25 06:26:05;;;;;;;36.00;21.60;;;5.30;99.90;;;;;;5012618;28;20261;-71
2022/11/25 06:28:31;;;;;;;36.53;20.33;;;5.30;99.90;;;;;;5008463;28;20216;-71
2022/11/25 06:31:03;;;;;;;38.00;21.73;;;5.30;99.90;;;;;;5022548;28;20204;-71
2022/11/25 06:33:29;;;;;;;40.43;21.23;;;5.20;99.90;;;;;;5012894;28;20216;-71
2022/11/25 06:35:54;;;;;;;36.60;19.87;;;5.20;99.90;;;;;;5004643;28;20573;-71
2022/11/25 06:38:20;;;;;;;38.67;20.83;;;5.10;99.90;;;;;;5019150;28;20207;-71
2022/11/25 06:40:46;;;;;;;43.40;21.93;;;5.10;99.90;;;;;;5008876;28;20758;-73
2022/11/25 06:43:11;;;;;;;42.33;21.90;;;5.10;99.90;;;;;;5007965;28;20222;-71
2022/11/25 06:45:37;;;;;;;42.60;22.53;;;5.10;99.90;;;;;;5015843;28;20213;-71
2022/11/25 06:48:03;;;;;;;38.37;22.13;;;5.10;99.90;;;;;;5008459;28;20213;-71
2022/11/25 06:50:28;;;;;;;52.47;24.10;;;5.10;99.90;;;;;;5015130;28;20212;-71
2022/11/25 06:52:54;;;;;;;44.40;23.40;;;5.10;99.90;;;;;;5012159;28;20266;-71
2022/11/25 06:55:19;;;;;;;43.70;23.73;;;5.00;99.90;;;;;;5008988;28;20320;-71
2022/11/25 06:57:45;;;;;;;46.23;23.77;;;5.10;99.90;;;;;;5014492;28;20214;-72
2022/11/25 07:00:11;;;;;;;47.40;24.47;;;5.10;99.90;;;;;;5016012;28;20187;-72
2022/11/25 07:02:36;;;;;;;53.90;22.87;;;5.10;99.90;;;;;;5005524;28;20236;-72
2022/11/25 07:05:02;;;;;;;49.47;23.37;;;5.10;99.90;;;;;;5016204;28;20862;-71
2022/11/25 07:07:28;;;;;;;49.03;23.90;;;5.10;99.90;;;;;;5011665;28;20259;-71
2022/11/25 07:09:53;;;;;;;42.90;23.43;;;5.10;99.90;;;;;;5002090;28;20726;-71
2022/11/25 07:12:19;;;;;;;41.00;22.17;;;5.10;99.90;;;;;;5017733;28;20238;-72
2022/11/25 07:14:44;;;;;;;44.07;24.27;;;5.10;99.90;;;;;;5008333;28;20617;-71
2022/11/25 07:17:10;;;;;;;38.07;22.33;;;5.20;99.90;;;;;;5012465;28;20206;-71
2022/11/25 07:19:36;;;;;;;44.37;23.27;;;5.20;99.90;;;;;;5015768;28;20209;-71
2022/11/25 07:22:02;;;;;;;39.67;22.17;;;5.20;99.90;;;;;;5006309;28;20217;-71
2022/11/25 07:24:27;;;;;;;38.93;22.33;;;5.20;99.90;;;;;;5017816;28;20232;-72
2022/11/25 07:26:53;;;;;;;37.87;21.93;;;5.30;99.90;;;;;;5011286;28;20548;-71
2022/11/25 07:29:19;;;;;;;36.67;22.03;;;5.30;99.90;;;;;;5011246;28;20227;-71
2022/11/25 07:31:45;;;;;;;44.63;22.33;;;5.30;99.90;;;;;;5012643;28;20216;-71
2022/11/25 07:34:12;;;;;;;37.57;20.90;;;5.20;99.90;;;;;;5011483;28;20604;-71
2022/11/25 07:36:38;;;;;;;37.83;19.77;;;5.20;99.90;;;;;;5003327;28;20279;-72
2022/11/25 07:39:16;;;;;;;40.60;20.90;;;5.30;99.90;;;;;;5017263;28;20601;-71
2022/11/25 07:41:42;;;;;;;35.30;19.30;;;5.30;99.90;;;;;;5007009;28;20224;-71
2022/11/25 07:44:11;;;;;;;36.17;19.67;;;5.40;99.90;;;;;;5016083;28;20221;-72
2022/11/25 07:46:39;;;;;;;32.37;18.80;;;5.60;99.90;;;;;;5013571;28;20291;-71
2022/11/25 07:49:08;;;;;;;30.00;18.67;;;5.70;99.90;;;;;;5006316;28;20714;-71
2022/11/25 07:51:40;;;;;;;32.47;18.37;;;5.70;99.90;;;;;;5013414;28;20212;-72
2022/11/25 07:54:08;;;;;;;29.83;17.73;;;5.80;99.90;;;;;;5010228;28;20256;-71
2022/11/25 07:56:36;;;;;;;33.87;17.70;;;5.90;99.90;;;;;;5007693;28;20225;-72
2022/11/25 07:59:01;;;;;;;28.53;17.00;;;5.80;99.90;;;;;;5016229;28;20256;-71
2022/11/25 08:01:27;;;;;;;32.40;18.07;;;5.90;99.90;;;;;;5010169;28;20227;-72
2022/11/25 08:03:53;;;;;;;30.30;17.27;;;5.80;99.90;;;;;;5001370;28;20705;-71
2022/11/25 08:06:22;;;;;;;29.33;17.13;;;5.90;99.90;;;;;;5016358;28;20184;-72
2022/11/25 08:08:49;;;;;;;27.03;17.53;;;5.90;99.90;;;;;;5007258;28;20205;-72
2022/11/25 08:11:18;;;;;;;26.97;16.40;;;6.00;99.90;;;;;;5013608;28;20204;-73
2022/11/25 08:13:44;;;;;;;26.27;16.33;;;6.10;99.90;;;;;;5009737;28;20220;-72
2022/11/25 08:16:12;;;;;;;27.93;17.07;;;6.10;99.90;;;;;;5006223;28;20213;-72
2022/11/25 08:18:39;;;;;;;23.93;16.20;;;6.20;99.90;;;;;;5013051;28;20216;-72
2022/11/25 08:21:08;;;;;;;24.80;16.20;;;6.30;99.90;;;;;;5010686;28;20197;-72
2022/11/25 08:23:35;;;;;;;25.67;16.20;;;6.30;99.90;;;;;;5003085;28;20278;-72
2022/11/25 08:26:13;;;;;;;25.07;16.20;;;6.40;99.90;;;;;;5014108;28;20863;-72
2022/11/25 08:28:40;;;;;;;28.20;16.50;;;6.60;99.90;;;;;;5008546;28;20215;-72
2022/11/25 08:31:24;;;;;;;28.53;17.47;;;6.70;99.90;;;;;;5007884;28;20211;-72
2022/11/25 08:33:50;;;;;;;27.83;16.03;;;6.80;99.90;;;;;;5009575;28;20263;-72
2022/11/25 08:36:17;;;;;;;21.67;14.47;;;6.90;99.90;;;;;;5007147;28;20188;-74
2022/11/25 08:38:45;;;;;;;20.83;15.13;;;7.00;99.90;;;;;;5012593;28;20177;-74
2022/11/25 08:41:21;;;;;;;24.00;14.53;;;7.20;99.90;;;;;;5026390;28;20226;-72
2022/11/25 08:43:47;;;;;;;30.20;15.33;;;7.10;99.90;;;;;;5002357;28;20217;-72
2022/11/25 08:46:19;;;;;;;25.77;15.27;;;7.30;99.90;;;;;;5016886;28;20212;-72
2022/11/25 08:48:45;;;;;;;24.07;14.73;;;7.30;99.90;;;;;;5006092;28;20256;-72
2022/11/25 08:51:16;;;;;;;26.57;14.97;;;7.30;99.90;;;;;;5005487;28;20660;-72
2022/11/25 08:53:43;;;;;;;21.30;14.07;;;7.30;99.90;;;;;;5013227;28;20205;-72
2022/11/25 08:56:09;;;;;;;22.70;14.03;;;7.30;99.90;;;;;;5005510;28;20236;-72
2022/11/25 08:58:35;;;;;;;25.57;14.63;;;7.30;99.90;;;;;;5006612;28;20223;-72
2022/11/25 09:01:01;;;;;;;24.87;14.57;;;7.30;99.90;;;;;;5009999;28;20233;-72
2022/11/25 09:03:31;;;;;;;22.93;14.23;;;7.20;99.90;;;;;;5010506;28;20211;-72
2022/11/25 09:05:57;;;;;;;25.77;15.27;;;7.20;99.90;;;;;;5013741;28;20185;-72
2022/11/25 09:08:23;;;;;;;26.10;14.97;;;7.20;99.90;;;;;;5011628;28;20239;-72
2022/11/25 09:10:50;;;;;;;25.60;13.77;;;7.30;99.90;;;;;;5001660;28;20293;-73
2022/11/25 09:13:15;;;;;;;24.97;14.73;;;7.40;99.90;;;;;;5015522;28;20307;-73
2022/11/25 09:15:42;;;;;;;30.90;14.60;;;7.50;99.90;;;;;;5007440;28;20259;-72
2022/11/25 09:18:09;;;;;;;27.10;14.47;;;7.50;99.90;;;;;;5005021;28;20280;-73
2022/11/25 09:20:37;;;;;;;24.90;15.40;;;7.50;99.90;;;;;;5014018;28;20308;-73
2022/11/25 09:23:03;;;;;;;23.97;15.63;;;7.50;99.90;;;;;;5005665;28;20787;-71
2022/11/25 09:25:29;;;;;;;25.40;15.90;;;7.40;99.90;;;;;;5006195;28;20291;-73
2022/11/25 09:27:55;;;;;;;30.80;17.70;;;7.40;99.90;;;;;;5010217;28;20687;-71
2022/11/25 09:30:21;;;;;;;28.30;16.33;;;7.50;99.90;;;;;;5010386;28;20181;-72
2022/11/25 09:32:51;;;;;;;31.73;16.27;;;7.40;99.90;;;;;;5016384;28;20207;-72
2022/11/25 09:35:17;;;;;;;26.77;16.67;;;7.40;99.90;;;;;;5017256;28;20211;-73
2022/11/25 09:37:43;;;;;;;26.53;15.17;;;7.30;99.90;;;;;;5005131;28;20271;-72
2022/11/25 09:40:18;;;;;;;28.57;16.17;;;7.30;99.90;;;;;;5019506;28;20745;-73
2022/11/25 09:49:03;;;;;;;28.77;17.50;;;7.40;99.90;;;;;;5013837;28;20215;-74
2022/11/25 09:51:37;;;;;;;30.77;16.07;;;7.40;99.90;;;;;;5008621;28;20213;-73
2022/11/25 09:54:17;;;;;;;28.77;16.13;;;7.30;99.90;;;;;;5016506;28;20209;-73
2022/11/25 09:56:53;;;;;;;29.47;16.70;;;7.20;99.90;;;;;;5009875;28;20224;-73
2022/11/25 09:59:35;;;;;;;25.00;15.83;;;7.30;99.90;;;;;;5018676;28;20740;-72
2022/11/25 10:02:09;;;;;;;29.47;17.27;;;7.30;99.90;;;;;;5013998;28;20742;-73
2022/11/25 10:04:45;;;;;;;30.33;17.93;;;7.10;99.90;;;;;;5006980;28;20237;-73
2022/11/25 10:07:27;;;;;;;31.43;16.43;;;7.00;99.90;;;;;;5019760;28;20212;-73
2022/11/25 10:09:55;;;;;;;27.63;16.97;;;7.30;99.90;;;;;;5009334;28;20221;-73
2022/11/25 10:12:26;;;;;;;24.60;15.70;;;7.20;99.90;;;;;;5016133;28;20200;-73
2022/11/25 10:15:00;;;;;;;30.23;17.33;;;7.10;99.90;;;;;;5014751;28;20267;-73
2022/11/25 10:17:32;;;;;;;30.13;16.53;;;7.20;99.90;;;;;;5008891;28;20209;-74
2022/11/25 10:20:32;;;;;;;28.33;16.67;;;7.30;99.90;;;;;;5009398;28;20212;-72
2022/11/25 10:23:04;;;;;;;27.77;17.80;;;7.30;99.90;;;;;;4980271;28;20703;-73
2022/11/25 10:25:38;;;;;;;27.97;17.43;;;7.40;99.90;;;;;;5010999;28;20255;-73
2022/11/25 10:28:15;;;;;;;25.97;17.20;;;7.20;99.90;;;;;;5017096;28;20213;-72
2022/11/25 10:31:02;;;;;;;30.77;17.60;;;7.30;99.90;;;;;;5017026;28;20216;-74
2022/11/25 10:33:40;;;;;;;23.63;16.60;;;7.30;99.90;;;;;;5014954;28;20212;-74
2022/11/25 10:36:13;;;;;;;22.77;14.57;;;7.40;99.90;;;;;;5010976;28;20185;-74
2022/11/25 10:38:47;;;;;;;24.97;15.20;;;7.60;99.90;;;;;;5005671;28;20224;-73
2022/11/25 10:41:18;;;;;;;25.13;15.83;;;7.60;99.90;;;;;;5018727;28;20673;-74
2022/11/25 10:43:46;;;;;;;22.10;15.13;;;7.40;99.90;;;;;;5009203;28;20246;-74
2022/11/25 10:46:26;;;;;;;22.70;15.47;;;7.50;99.90;;;;;;5005017;28;20216;-74
2022/11/25 10:49:00;;;;;;;29.17;15.17;;;7.50;99.90;;;;;;5012099;28;20211;-74
2022/11/25 10:51:48;;;;;;;28.57;15.17;;;7.60;99.90;;;;;;5007567;28;20219;-74
2022/11/25 10:54:23;;;;;;;24.40;14.80;;;7.60;99.90;;;;;;5019846;28;20212;-74
2022/11/25 10:56:57;;;;;;;25.40;16.30;;;7.60;99.90;;;;;;5008922;28;20184;-73
2022/11/25 10:59:27;;;;;;;24.83;16.87;;;7.60;99.90;;;;;;5012698;28;20299;-74
2022/11/25 11:02:10;;;;;;;28.50;14.73;;;7.70;99.90;;;;;;5015075;28;20683;-75
2022/11/25 11:05:08;;;;;;;29.20;16.53;;;7.80;99.90;;;;;;5007401;28;20215;-74
2022/11/25 11:07:40;;;;;;;24.43;14.27;;;7.80;99.90;;;;;;5011267;28;20208;-74
2022/11/25 11:10:14;;;;;;;28.83;15.20;;;7.90;99.90;;;;;;5011040;28;20215;-74
2022/11/25 11:13:16;;;;;;;25.13;15.20;;;8.00;99.90;;;;;;5003845;28;20213;-75
2022/11/25 11:15:42;;;;;;;28.63;16.93;;;7.90;99.90;;;;;;5011524;28;20217;-74
2022/11/25 11:18:19;;;;;;;28.50;17.57;;;8.10;99.90;;;;;;5008506;28;20281;-74
2022/11/25 11:20:47;;;;;;;28.77;17.23;;;8.20;99.90;;;;;;5014758;28;20236;-74
2022/11/25 11:23:14;;;;;;;24.73;15.37;;;8.20;99.90;;;;;;5013225;28;20224;-74
2022/11/25 11:25:42;;;;;;;32.67;18.37;;;8.40;99.90;;;;;;5005032;28;20263;-74
2022/11/25 11:28:32;;;;;;;29.43;17.90;;;8.40;99.90;;;;;;5018935;28;20205;-74
2022/11/25 11:31:38;;;;;;;32.13;17.50;;;8.40;99.90;;;;;;5014845;28;20220;-74
2022/11/25 11:34:50;;;;;;;31.47;18.87;;;8.20;99.90;;;;;;4995166;28;20220;-74
2022/11/25 11:37:40;;;;;;;30.97;19.20;;;8.40;99.90;;;;;;4993112;28;20224;-72
2022/11/25 11:40:15;;;;;;;31.37;19.20;;;8.30;99.90;;;;;;5005408;28;20247;-72
2022/11/25 11:43:01;;;;;;;37.83;21.07;;;8.40;99.90;;;;;;5014638;28;20208;-73
2022/11/25 11:45:43;;;;;;;31.53;18.10;;;8.40;99.90;;;;;;5007572;28;20238;-74
2022/11/25 11:48:15;;;;;;;24.57;16.10;;;8.40;99.90;;;;;;5019797;28;20185;-72
2022/11/25 11:50:51;;;;;;;27.97;18.13;;;8.40;99.90;;;;;;5008860;28;20200;-72
2022/11/25 11:53:33;;;;;;;28.07;18.43;;;8.50;99.90;;;;;;5008863;28;20239;-72
2022/11/25 11:56:02;;;;;;;27.47;16.60;;;8.60;99.90;;;;;;5012246;28;20592;-71
2022/11/25 11:58:46;;;;;;;30.23;19.30;;;8.40;99.90;;;;;;5006269;28;20209;-72
2022/11/25 12:01:21;;;;;;;29.77;17.20;;;8.20;99.90;;;;;;5012681;28;20217;-72
2022/11/25 12:04:15;;;;;;;27.13;17.03;;;8.20;99.90;;;;;;5009007;28;20204;-72
2022/11/25 12:06:44;;;;;;;26.83;18.17;;;8.20;99.90;;;;;;4998665;28;20300;-72
2022/11/25 12:09:19;;;;;;;30.77;18.93;;;8.10;99.90;;;;;;5016235;28;20181;-71
2022/11/25 12:11:51;;;;;;;28.90;17.67;;;8.10;99.90;;;;;;5007619;28;20259;-72
2022/11/25 12:14:43;;;;;;;31.30;19.40;;;8.00;99.90;;;;;;5017161;28;20212;-71
2022/11/25 12:17:33;;;;;;;35.30;19.53;;;7.90;99.90;;;;;;5010031;28;20218;-71
2022/11/25 12:20:37;;;;;;;30.57;18.93;;;7.80;99.90;;;;;;5003051;28;20217;-71
2022/11/25 12:23:20;;;;;;;30.63;19.47;;;7.90;99.90;;;;;;5013186;28;20217;-71
2022/11/25 12:25:50;;;;;;;32.00;19.90;;;7.90;99.90;;;;;;5005663;28;20214;-72
2022/11/25 12:28:29;;;;;;;31.93;19.17;;;7.90;99.90;;;;;;5012463;28;20204;-71
2022/11/25 12:31:04;;;;;;;31.87;19.17;;;7.90;99.90;;;;;;5027300;28;20216;-71
2022/11/25 12:34:07;;;;;;;37.80;22.20;;;7.90;99.90;;;;;;5008427;28;21038;-72
2022/11/25 12:36:45;;;;;;;37.23;21.77;;;8.00;99.90;;;;;;5011191;28;20209;-72
2022/11/25 12:39:35;;;;;;;39.03;22.73;;;7.90;99.90;;;;;;5007329;28;20255;-71
2022/11/25 12:42:04;;;;;;;41.03;22.93;;;7.90;99.90;;;;;;5029996;28;20212;-71
2022/11/25 12:44:43;;;;;;;34.43;21.97;;;7.90;99.90;;;;;;5010997;28;20213;-73
2022/11/25 12:47:11;;;;;;;37.17;21.27;;;7.80;99.90;;;;;;5006201;28;20205;-71
2022/11/25 12:49:44;;;;;;;36.07;21.87;;;7.80;99.90;;;;;;5014751;28;20209;-71
2022/11/25 12:52:52;;;;;;;33.53;20.23;;;7.80;99.90;;;;;;5007618;28;20206;-73
2022/11/25 12:55:22;;;;;;;31.33;21.10;;;7.90;99.90;;;;;;4949396;28;20298;-71
2022/11/25 12:57:59;;;;;;;36.63;22.97;;;7.80;99.90;;;;;;5002754;28;20212;-71
2022/11/25 13:00:50;;;;;;;34.97;21.53;;;7.80;99.90;;;;;;5005078;28;20184;-72
2022/11/25 13:03:33;;;;;;;34.43;21.63;;;7.80;99.90;;;;;;5006038;28;20276;-71
2022/11/25 13:06:18;;;;;;;38.00;22.80;;;7.90;99.90;;;;;;5010643;28;20203;-72